Time;durP1;ratioP1;P1;durP2;ratioP2;P2;SDS_P1;SDS_P2;PMS_P1;PMS_P2;Temp;Humidity;BMP_temperature;BMP_pressure;BME280_temperature;BME280_humidity;BME280_pressure;Samples;Min_cycle;Max_cycle;Signal;HPM_P1;HPM_P2
2022/06/21 00:01:31;;;;;;;147.20;32.67;;;;;;;;;;4981056;28;20189;-51
2022/06/21 00:03:57;;;;;;;205.87;43.53;;;;;;;;;;4980509;28;20322;-51
2022/06/21 00:06:24;;;;;;;160.90;33.47;;;;;;;;;;4985074;28;20221;-51
2022/06/21 00:08:51;;;;;;;65.90;18.83;;;;;;;;;;4973463;28;20218;-51
2022/06/21 00:11:16;;;;;;;190.20;40.17;;;;;;;;;;4987273;28;20268;-51
2022/06/21 00:13:42;;;;;;;136.30;30.93;;;;;;;;;;4983681;28;20213;-51
2022/06/21 00:16:11;;;;;;;116.13;27.37;;;;;;;;;;4964667;28;20189;-51
2022/06/21 00:18:38;;;;;;;70.27;20.37;;;;;;;;;;4986562;28;20220;-51
2022/06/21 00:21:06;;;;;;;112.10;27.77;;;;;;;;;;4983312;28;20591;-51
2022/06/21 00:23:32;;;;;;;150.13;35.13;;;;;;;;;;4968843;28;20221;-51
2022/06/21 00:25:59;;;;;;;47.90;11.93;;;;;;;;;;4992085;28;20217;-51
2022/06/21 00:28:25;;;;;;;153.43;40.97;;;;;;;;;;4975734;28;20212;-51
2022/06/21 00:30:52;;;;;;;130.83;27.60;;;;;;;;;;4988294;28;20703;-51
2022/06/21 00:33:20;;;;;;;154.47;34.10;;;;;;;;;;4981597;28;20233;-50
2022/06/21 00:35:48;;;;;;;83.17;20.00;;;;;;;;;;4983700;28;20219;-51
2022/06/21 00:38:15;;;;;;;282.60;58.67;;;;;;;;;;4976832;28;20233;-51
2022/06/21 00:40:41;;;;;;;57.53;16.60;;;;;;;;;;4987744;28;20221;-51
2022/06/21 00:43:12;;;;;;;169.23;35.87;;;;;;;;;;4965842;28;20186;-50
2022/06/21 00:45:39;;;;;;;87.03;21.47;;;;;;;;;;4984345;28;20213;-51
2022/06/21 00:48:11;;;;;;;45.80;14.13;;;;;;;;;;4987438;28;20363;-51
2022/06/21 00:50:39;;;;;;;140.23;36.00;;;;;;;;;;4976539;28;20235;-51
2022/06/21 00:53:14;;;;;;;167.30;45.07;;;;;;;;;;4977916;28;20248;-51
2022/06/21 00:55:42;;;;;;;85.40;24.40;;;;;;;;;;4982339;28;20566;-51
2022/06/21 00:58:14;;;;;;;99.43;26.97;;;;;;;;;;4988810;28;20201;-51
2022/06/21 01:00:45;;;;;;;85.53;24.87;;;;;;;;;;4987952;28;20671;-51
2022/06/21 01:03:18;;;;;;;160.03;46.50;;;;;;;;;;4980530;28;20308;-51
2022/06/21 01:05:45;;;;;;;116.43;32.33;;;;;;;;;;4982640;28;20213;-51
2022/06/21 01:08:14;;;;;;;82.93;22.73;;;;;;;;;;4986776;28;20334;-50
2022/06/21 01:10:41;;;;;;;83.97;24.07;;;;;;;;;;4991925;28;20232;-51
2022/06/21 01:13:12;;;;;;;116.60;32.37;;;;;;;;;;4984607;28;20224;-51
2022/06/21 01:15:45;;;;;;;88.60;26.40;;;;;;;;;;4982111;28;20604;-51
2022/06/21 01:18:13;;;;;;;194.77;50.83;;;;;;;;;;4972455;28;20481;-51
2022/06/21 01:20:43;;;;;;;76.63;22.47;;;;;;;;;;4985417;28;20263;-51
2022/06/21 01:23:09;;;;;;;110.00;29.83;;;;;;;;;;4984605;28;20216;-51
2022/06/21 01:25:51;;;;;;;109.73;32.20;;;;;;;;;;4978847;28;20181;-51
2022/06/21 01:28:17;;;;;;;215.73;60.73;;;;;;;;;;4981345;28;20578;-51
2022/06/21 01:30:46;;;;;;;71.13;21.33;;;;;;;;;;4984094;28;20206;-51
2022/06/21 01:33:13;;;;;;;127.10;35.27;;;;;;;;;;4985399;28;20686;-51
2022/06/21 01:35:41;;;;;;;99.73;28.33;;;;;;;;;;4977045;28;20713;-51
2022/06/21 01:38:09;;;;;;;84.33;25.50;;;;;;;;;;4982960;28;21020;-51
2022/06/21 01:40:39;;;;;;;119.87;33.37;;;;;;;;;;4985957;28;20177;-51
2022/06/21 01:43:07;;;;;;;66.67;21.10;;;;;;;;;;4987910;28;20408;-51
2022/06/21 01:45:39;;;;;;;61.83;21.00;;;;;;;;;;4987928;28;20228;-51
2022/06/21 01:48:13;;;;;;;116.63;32.50;;;;;;;;;;4981100;28;20228;-51
2022/06/21 01:50:40;;;;;;;97.83;28.23;;;;;;;;;;4973857;28;20223;-51
2022/06/21 01:53:07;;;;;;;104.93;30.30;;;;;;;;;;4984751;28;20216;-51
2022/06/21 01:55:35;;;;;;;79.30;23.50;;;;;;;;;;4961801;28;20630;-51
2022/06/21 01:58:02;;;;;;;117.90;32.57;;;;;;;;;;4984249;28;20673;-51
2022/06/21 02:00:31;;;;;;;170.57;43.83;;;;;;;;;;4983880;28;20241;-51
2022/06/21 02:03:00;;;;;;;42.80;15.60;;;;;;;;;;4983774;28;20570;-51
2022/06/21 02:05:29;;;;;;;115.17;38.27;;;;;;;;;;4991945;28;20308;-51
2022/06/21 02:07:58;;;;;;;163.77;47.07;;;;;;;;;;4987913;28;20601;-51
2022/06/21 02:10:40;;;;;;;197.67;56.73;;;;;;;;;;4985643;28;20185;-51
2022/06/21 02:13:09;;;;;;;116.90;33.83;;;;;;;;;;4991788;28;20279;-51
2022/06/21 02:15:37;;;;;;;138.37;39.63;;;;;;;;;;4983345;28;20213;-51
2022/06/21 02:18:06;;;;;;;108.30;33.27;;;;;;;;;;4991701;28;20217;-51
2022/06/21 02:20:37;;;;;;;135.47;38.23;;;;;;;;;;4985065;28;20597;-51
2022/06/21 02:23:05;;;;;;;39.53;15.73;;;;;;;;;;4985870;28;20263;-51
2022/06/21 02:25:31;;;;;;;95.93;29.77;;;;;;;;;;4983834;28;20189;-51
2022/06/21 02:28:00;;;;;;;76.00;24.33;;;;;;;;;;4991095;28;20204;-51
2022/06/21 02:30:26;;;;;;;100.70;29.93;;;;;;;;;;4988297;28;20218;-51
2022/06/21 02:32:56;;;;;;;168.33;45.37;;;;;;;;;;4982848;28;20251;-51
2022/06/21 02:35:38;;;;;;;179.17;49.77;;;;;;;;;;4953393;28;20209;-51
2022/06/21 02:38:05;;;;;;;136.07;38.80;;;;;;;;;;4983825;28;20221;-51
2022/06/21 02:40:33;;;;;;;91.87;29.33;;;;;;;;;;4990842;28;20268;-51
2022/06/21 02:43:01;;;;;;;27.47;11.87;;;;;;;;;;4992517;28;20312;-51
2022/06/21 02:45:30;;;;;;;104.03;31.47;;;;;;;;;;4981773;28;20213;-51
2022/06/21 02:47:58;;;;;;;194.30;49.43;;;;;;;;;;4978240;28;20685;-51
2022/06/21 02:50:27;;;;;;;171.90;47.60;;;;;;;;;;4987104;28;20326;-51
2022/06/21 02:52:55;;;;;;;102.33;33.20;;;;;;;;;;4974271;28;20241;-51
2022/06/21 02:55:21;;;;;;;158.63;44.93;;;;;;;;;;4984596;28;20574;-51
2022/06/21 02:57:54;;;;;;;84.73;26.47;;;;;;;;;;4992550;28;20181;-51
2022/06/21 03:00:23;;;;;;;126.60;36.20;;;;;;;;;;4979721;28;20221;-51
2022/06/21 03:02:49;;;;;;;111.90;33.57;;;;;;;;;;4986741;28;20214;-51
2022/06/21 03:05:17;;;;;;;102.73;30.03;;;;;;;;;;4992962;28;20222;-51
2022/06/21 03:07:45;;;;;;;132.73;38.80;;;;;;;;;;4990096;28;20225;-51
2022/06/21 03:10:28;;;;;;;110.33;31.83;;;;;;;;;;4982927;28;20193;-51
2022/06/21 03:13:00;;;;;;;107.43;30.17;;;;;;;;;;4981335;28;20285;-51
2022/06/21 03:15:26;;;;;;;164.63;43.97;;;;;;;;;;4979748;28;20680;-51
2022/06/21 03:17:55;;;;;;;157.10;43.90;;;;;;;;;;4984763;28;21036;-51
2022/06/21 03:20:21;;;;;;;141.10;40.13;;;;;;;;;;4985182;28;20239;-51
2022/06/21 03:22:49;;;;;;;126.07;36.50;;;;;;;;;;4985270;28;20307;-51
2022/06/21 03:25:20;;;;;;;81.47;26.30;;;;;;;;;;4985318;28;20217;-51
2022/06/21 03:27:50;;;;;;;122.50;35.00;;;;;;;;;;4989164;28;20208;-51
2022/06/21 03:30:17;;;;;;;123.43;35.70;;;;;;;;;;4985531;28;20228;-51
2022/06/21 03:32:43;;;;;;;135.10;39.83;;;;;;;;;;4986928;28;20214;-51
2022/06/21 03:35:10;;;;;;;119.37;33.60;;;;;;;;;;4978230;28;20216;-51
2022/06/21 03:37:38;;;;;;;204.10;57.07;;;;;;;;;;4979668;28;20184;-51
2022/06/21 03:42:51;;;;;;;148.10;41.80;;;;;;;;;;4980427;28;20328;-52
2022/06/21 03:45:23;;;;;;;143.53;39.23;;;;;;;;;;4979931;28;20617;-51
2022/06/21 03:48:04;;;;;;;102.30;30.50;;;;;;;;;;4990606;28;20583;-51
2022/06/21 03:50:32;;;;;;;91.67;27.53;;;;;;;;;;4985095;28;20224;-51
2022/06/21 03:53:08;;;;;;;70.77;24.50;;;;;;;;;;4995182;28;20475;-51
2022/06/21 03:55:42;;;;;;;141.80;40.70;;;;;;;;;;4978585;28;20190;-51
2022/06/21 03:58:13;;;;;;;163.73;46.07;;;;;;;;;;4982808;28;20744;-51
2022/06/21 04:00:49;;;;;;;100.10;30.03;;;;;;;;;;4981908;28;20220;-51
2022/06/21 04:03:22;;;;;;;136.20;38.60;;;;;;;;;;4985538;28;20221;-51
2022/06/21 04:05:55;;;;;;;100.70;28.80;;;;;;;;;;4980116;28;20392;-51
2022/06/21 04:08:24;;;;;;;88.27;27.47;;;;;;;;;;4983374;28;20760;-51
2022/06/21 04:11:09;;;;;;;87.60;27.17;;;;;;;;;;4988214;28;20300;-51
2022/06/21 04:13:35;;;;;;;155.87;42.10;;;;;;;;;;4984616;28;20272;-51
2022/06/21 04:16:10;;;;;;;162.23;47.27;;;;;;;;;;4993277;28;20400;-51
2022/06/21 04:18:38;;;;;;;122.63;36.77;;;;;;;;;;4989153;28;20228;-51
2022/06/21 04:21:16;;;;;;;137.37;39.07;;;;;;;;;;4988393;28;20224;-51
2022/06/21 04:23:45;;;;;;;138.93;39.93;;;;;;;;;;4984705;28;20239;-51
2022/06/21 04:26:11;;;;;;;104.90;32.60;;;;;;;;;;4990958;28;20634;-51
2022/06/21 04:28:40;;;;;;;185.10;56.70;;;;;;;;;;4986261;28;20187;-51
2022/06/21 04:31:12;;;;;;;94.40;29.97;;;;;;;;;;4986471;28;20521;-51
2022/06/21 04:33:41;;;;;;;268.40;71.40;;;;;;;;;;4985424;28;20932;-52
2022/06/21 04:36:32;;;;;;;217.70;61.13;;;;;;;;;;4971537;28;20296;-51
2022/06/21 04:39:05;;;;;;;154.83;45.93;;;;;;;;;;4978796;28;20228;-51
2022/06/21 04:41:35;;;;;;;132.90;42.73;;;;;;;;;;4980654;28;20387;-51
2022/06/21 04:44:10;;;;;;;153.13;45.47;;;;;;;;;;4979166;28;20930;-51
2022/06/21 04:46:40;;;;;;;151.80;48.53;;;;;;;;;;4967265;28;20217;-51
2022/06/21 04:49:11;;;;;;;183.20;55.87;;;;;;;;;;4984558;28;20210;-51
2022/06/21 04:51:43;;;;;;;175.77;53.37;;;;;;;;;;4980014;28;20225;-51
2022/06/21 04:54:12;;;;;;;126.00;41.60;;;;;;;;;;4967895;28;20431;-51
2022/06/21 04:56:49;;;;;;;106.00;40.43;;;;;;;;;;4986031;28;20221;-51
2022/06/21 04:59:24;;;;;;;110.57;37.57;;;;;;;;;;4992646;28;20217;-51
2022/06/21 05:01:50;;;;;;;150.23;49.97;;;;;;;;;;4991526;28;20366;-51
2022/06/21 05:04:43;;;;;;;102.07;35.67;;;;;;;;;;4987828;28;20225;-51
2022/06/21 05:07:20;;;;;;;109.27;36.43;;;;;;;;;;4994346;28;20682;-51
2022/06/21 05:09:48;;;;;;;112.73;36.43;;;;;;;;;;4990632;28;20229;-51
2022/06/21 05:12:17;;;;;;;158.87;53.93;;;;;;;;;;4992466;28;20275;-51
2022/06/21 05:14:45;;;;;;;232.13;74.53;;;;;;;;;;4982739;28;20224;-51
2022/06/21 05:17:13;;;;;;;246.03;75.20;;;;;;;;;;4985745;28;20217;-51
2022/06/21 05:19:41;;;;;;;144.17;50.07;;;;;;;;;;4989623;28;20228;-51
2022/06/21 05:22:16;;;;;;;213.67;70.53;;;;;;;;;;4988175;28;20779;-51
2022/06/21 05:24:42;;;;;;;198.70;63.53;;;;;;;;;;4970261;28;20311;-51
2022/06/21 05:27:13;;;;;;;111.97;39.27;;;;;;;;;;4984292;28;20216;-51
2022/06/21 05:29:45;;;;;;;176.10;64.20;;;;;;;;;;4987535;28;20229;-51
2022/06/21 05:32:16;;;;;;;181.33;61.63;;;;;;;;;;4989879;28;20213;-51
2022/06/21 05:34:44;;;;;;;168.27;57.47;;;;;;;;;;4986815;28;20221;-51
2022/06/21 05:37:17;;;;;;;215.83;86.33;;;;;;;;;;4975821;28;20177;-51
2022/06/21 05:39:46;;;;;;;196.37;70.70;;;;;;;;;;4990340;28;20222;-51
2022/06/21 05:42:13;;;;;;;287.57;73.43;;;;;;;;;;4976495;28;20306;-51
2022/06/21 05:44:42;;;;;;;174.67;53.73;;;;;;;;;;4977661;28;20237;-51
2022/06/21 05:47:14;;;;;;;265.20;79.33;;;;;;;;;;4986514;28;20666;-51
2022/06/21 05:49:41;;;;;;;168.47;55.10;;;;;;;;;;4988449;28;20363;-51
2022/06/21 05:52:13;;;;;;;119.53;45.23;;;;;;;;;;4986791;28;20299;-51
2022/06/21 05:54:44;;;;;;;203.43;65.60;;;;;;;;;;4986728;28;20204;-51
2022/06/21 05:57:14;;;;;;;95.03;40.83;;;;;;;;;;4994680;28;20305;-53
2022/06/21 05:59:40;;;;;;;102.23;40.17;;;;;;;;;;4996617;28;20221;-53
2022/06/21 06:02:15;;;;;;;118.23;42.33;;;;;;;;;;4998015;28;20744;-53
2022/06/21 06:04:45;;;;;;;122.67;43.50;;;;;;;;;;4997024;28;20823;-52
2022/06/21 06:07:22;;;;;;;121.57;45.97;;;;;;;;;;4991318;28;20189;-52
2022/06/21 06:09:50;;;;;;;120.87;48.63;;;;;;;;;;4990707;28;20311;-52
2022/06/21 06:12:22;;;;;;;126.67;53.40;;;;;;;;;;4992702;28;21166;-53
2022/06/21 06:14:50;;;;;;;153.03;57.13;;;;;;;;;;4990524;28;20213;-53
2022/06/21 06:17:23;;;;;;;160.63;59.07;;;;;;;;;;4977512;28;21081;-53
2022/06/21 06:19:56;;;;;;;110.40;46.20;;;;;;;;;;5000207;28;20625;-52
2022/06/21 06:22:41;;;;;;;113.03;48.20;;;;;;;;;;5004995;28;20209;-53
2022/06/21 06:25:26;;;;;;;90.77;42.33;;;;;;;;;;5001514;28;20665;-53
2022/06/21 06:28:24;;;;;;;245.30;99.10;;;;;;;;;;4996564;28;20201;-52
2022/06/21 06:31:02;;;;;;;120.40;56.73;;;;;;;;;;4947372;28;20537;-52
2022/06/21 06:33:30;;;;;;;133.27;53.17;;;;;;;;;;4990433;28;20224;-52
2022/06/21 06:35:58;;;;;;;90.00;44.17;;;;;;;;;;4977915;28;20876;-52
2022/06/21 06:38:24;;;;;;;147.97;59.83;;;;;;;;;;4995030;28;20221;-52
2022/06/21 06:40:57;;;;;;;96.90;48.70;;;;;;;;;;4993676;28;20251;-52
2022/06/21 06:43:33;;;;;;;117.87;53.73;;;;;;;;;;5001982;28;20212;-53
2022/06/21 06:45:59;;;;;;;73.83;42.20;;;;;;;;;;4997176;28;20193;-53
2022/06/21 06:48:29;;;;;;;147.03;58.83;;;;;;;;;;4998480;28;20247;-53
2022/06/21 06:51:04;;;;;;;202.75;63.03;;;;;;;;;;4984064;28;24009;-53
2022/06/21 06:53:35;;;;;;;113.17;49.27;;;;;;;;;;4980197;28;20224;-53
2022/06/21 06:56:03;;;;;;;156.73;62.33;;;;;;;;;;4981000;28;20264;-54
2022/06/21 06:58:36;;;;;;;131.03;58.07;;;;;;;;;;4969275;28;20514;-54
2022/06/21 07:01:10;;;;;;;154.17;58.17;;;;;;;;;;4983628;28;20586;-53
2022/06/21 07:03:38;;;;;;;239.07;76.87;;;;;;;;;;4981507;28;20227;-53
2022/06/21 07:06:12;;;;;;;152.77;61.83;;;;;;;;;;4979743;28;20268;-53
2022/06/21 07:08:50;;;;;;;272.53;90.37;;;;;;;;;;4994075;28;20727;-53
2022/06/21 07:11:29;;;;;;;271.53;82.60;;;;;;;;;;4989365;28;20225;-53
2022/06/21 07:13:56;;;;;;;94.50;50.00;;;;;;;;;;4989586;28;20619;-53
2022/06/21 07:16:24;;;;;;;92.97;52.97;;;;;;;;;;5000340;28;20181;-53
2022/06/21 07:18:52;;;;;;;155.30;69.33;;;;;;;;;;4991437;28;20673;-53
2022/06/21 07:21:19;;;;;;;154.47;69.10;;;;;;;;;;4997943;28;20308;-53
2022/06/21 07:23:46;;;;;;;198.83;80.83;;;;;;;;;;4990871;28;20673;-53
2022/06/21 07:26:29;;;;;;;181.83;84.43;;;;;;;;;;4988052;28;20223;-53
2022/06/21 07:29:22;;;;;;;110.83;60.63;;;;;;;;;;4991967;28;20240;-53
2022/06/21 07:31:50;;;;;;;97.90;57.43;;;;;;;;;;4951392;28;20213;-53
2022/06/21 07:34:42;;;;;;;168.33;79.23;;;;;;;;;;4990197;28;20331;-53
2022/06/21 07:37:11;;;;;;;103.43;62.80;;;;;;;;;;4998521;28;20248;-53
2022/06/21 07:39:37;;;;;;;133.40;67.80;;;;;;;;;;4990647;28;20582;-53
2022/06/21 07:42:07;;;;;;;147.10;68.07;;;;;;;;;;4983129;28;20228;-53
2022/06/21 07:44:35;;;;;;;125.37;67.13;;;;;;;;;;4986125;28;20444;-52
2022/06/21 07:47:07;;;;;;;63.20;56.27;;;;;;;;;;4990932;28;20221;-51
2022/06/21 07:49:39;;;;;;;88.13;63.70;;;;;;;;;;4973402;28;20206;-51
2022/06/21 07:52:23;;;;;;;79.23;66.80;;;;;;;;;;4991194;28;20248;-51
2022/06/21 07:54:56;;;;;;;89.43;66.03;;;;;;;;;;4991173;28;20209;-50
2022/06/21 07:57:24;;;;;;;85.27;66.37;;;;;;;;;;4990488;28;20228;-50
2022/06/21 07:59:57;;;;;;;119.23;80.93;;;;;;;;;;4990561;28;20304;-51
2022/06/21 08:06:41;;;;;;;112.68;84.35;;;;;;;;;;4990793;28;20802;-50
2022/06/21 08:08:15;;;;;;;97.55;74.78;;;;;;;;;;4990396;28;20562;-51
2022/06/21 08:10:45;;;;;;;105.70;79.68;;;;;;;;;;4990575;28;20666;-51
2022/06/21 08:13:11;;;;;;;215.97;108.20;;;;;;;;;;4991379;28;20180;-53
2022/06/21 08:15:43;;;;;;;210.57;111.77;;;;;;;;;;4988747;28;20212;-53
2022/06/21 08:18:14;;;;;;;124.57;90.97;;;;;;;;;;4986664;28;20224;-53
2022/06/21 08:20:45;;;;;;;154.87;100.43;;;;;;;;;;4989211;28;20225;-53
2022/06/21 08:23:41;;;;;;;218.50;110.97;;;;;;;;;;4988416;28;20224;-53
2022/06/21 08:26:11;;;;;;;189.48;101.00;;;;;;;;;;4968030;28;20224;-53
2022/06/21 08:28:40;;;;;;;168.97;101.70;;;;;;;;;;4991762;28;20220;-53
2022/06/21 08:31:28;;;;;;;125.97;88.38;;;;;;;;;;4987577;28;20261;-53
2022/06/21 08:33:56;;;;;;;237.85;115.18;;;;;;;;;;4983745;28;20216;-53
2022/06/21 08:36:25;;;;;;;183.18;107.78;;;;;;;;;;4990646;28;20229;-53
2022/06/21 08:39:12;;;;;;;134.02;95.15;;;;;;;;;;4981009;28;20220;-53
2022/06/21 08:41:59;;;;;;;222.32;118.40;;;;;;;;;;4989453;28;20315;-53
2022/06/21 08:44:37;;;;;;;206.17;119.27;;;;;;;;;;4988340;28;20283;-53
2022/06/21 08:47:18;;;;;;;153.68;97.88;;;;;;;;;;4993148;28;20703;-53
2022/06/21 08:49:53;;;;;;;158.20;101.07;;;;;;;;;;4997203;28;20319;-53
2022/06/21 08:52:25;;;;;;;177.57;107.38;;;;;;;;;;4990768;28;20699;-53
2022/06/21 08:54:57;;;;;;;204.38;117.70;;;;;;;;;;4995075;28;20181;-54
2022/06/21 08:57:26;;;;;;;188.75;111.00;;;;;;;;;;4990204;28;20652;-53
2022/06/21 08:59:55;;;;;;;228.23;134.70;;;;;;;;;;4991928;28;20845;-53
2022/06/21 09:02:34;;;;;;;248.90;142.00;;;;;;;;;;4990349;28;20589;-53
2022/06/21 09:05:01;;;;;;;148.27;108.78;;;;;;;;;;4990192;28;20256;-53
2022/06/21 09:07:30;;;;;;;229.30;133.90;;;;;;;;;;4996384;28;20192;-53
2022/06/21 09:10:18;;;;;;;245.68;142.20;;;;;;;;;;4990012;28;20515;-53
2022/06/21 09:12:55;;;;;;;252.87;143.27;;;;;;;;;;4988878;28;20223;-54
2022/06/21 09:15:38;;;;;;;186.83;119.77;;;;;;;;;;4990491;28;20307;-53
2022/06/21 09:18:24;;;;;;;234.68;142.07;;;;;;;;;;4987659;28;20511;-53
2022/06/21 09:21:02;;;;;;;206.30;132.95;;;;;;;;;;4993265;28;20697;-53
2022/06/21 09:23:39;;;;;;;209.27;130.05;;;;;;;;;;4984479;28;20217;-53
2022/06/21 09:26:05;;;;;;;194.20;126.10;;;;;;;;;;4991193;28;20233;-53
2022/06/21 09:28:38;;;;;;;216.57;135.30;;;;;;;;;;4994086;28;20193;-53
2022/06/21 09:31:24;;;;;;;208.23;130.52;;;;;;;;;;4992510;28;20211;-53
2022/06/21 09:33:58;;;;;;;245.88;143.27;;;;;;;;;;4965383;28;20989;-53
2022/06/21 09:36:27;;;;;;;213.40;131.65;;;;;;;;;;4997072;28;20221;-53
2022/06/21 09:39:04;;;;;;;271.52;153.23;;;;;;;;;;4993924;28;20713;-53
2022/06/21 09:41:52;;;;;;;313.80;172.93;;;;;;;;;;4993853;28;20307;-53
2022/06/21 09:44:27;;;;;;;297.25;158.50;;;;;;;;;;5000065;28;20335;-53
2022/06/21 09:46:56;;;;;;;326.63;173.07;;;;;;;;;;4994084;28;20231;-54
2022/06/21 09:49:30;;;;;;;303.95;160.43;;;;;;;;;;4996095;28;20212;-54
2022/06/21 09:51:56;;;;;;;359.43;187.87;;;;;;;;;;4991953;28;20613;-53
2022/06/21 09:54:28;;;;;;;321.27;169.77;;;;;;;;;;4995181;28;20259;-53
2022/06/21 09:57:03;;;;;;;336.77;177.17;;;;;;;;;;4981004;28;20630;-54
2022/06/21 09:59:32;;;;;;;377.87;195.10;;;;;;;;;;4994327;28;20228;-53
2022/06/21 10:01:59;;;;;;;345.57;176.63;;;;;;;;;;5000202;28;20307;-54
2022/06/21 10:04:25;;;;;;;379.67;193.00;;;;;;;;;;4998324;28;20208;-53
2022/06/21 10:06:54;;;;;;;382.85;199.90;;;;;;;;;;4993967;28;20182;-53
2022/06/21 10:09:32;;;;;;;318.27;167.47;;;;;;;;;;5001236;28;20764;-54
2022/06/21 10:12:07;;;;;;;408.70;210.87;;;;;;;;;;4995932;28;20212;-53
2022/06/21 10:14:36;;;;;;;378.77;199.00;;;;;;;;;;4995746;28;20350;-54
2022/06/21 10:17:05;;;;;;;359.58;192.23;;;;;;;;;;4993459;28;20212;-54
2022/06/21 10:19:40;;;;;;;357.20;186.38;;;;;;;;;;4998779;28;20197;-53
2022/06/21 10:22:09;;;;;;;392.45;205.38;;;;;;;;;;4988381;28;20235;-53
2022/06/21 10:24:41;;;;;;;430.00;226.32;;;;;;;;;;4991877;28;20294;-53
2022/06/21 10:27:15;;;;;;;327.15;171.77;;;;;;;;;;4990413;28;20232;-53
2022/06/21 10:29:47;;;;;;;331.00;183.93;;;;;;;;;;5004555;28;20223;-51
2022/06/21 10:32:16;;;;;;;358.02;198.43;;;;;;;;;;5011113;28;20580;-51
2022/06/21 10:34:53;;;;;;;333.65;188.15;;;;;;;;;;5015119;28;20591;-51
2022/06/21 10:37:25;;;;;;;327.23;186.85;;;;;;;;;;5021217;28;20176;-51
2022/06/21 10:40:03;;;;;;;345.88;190.68;;;;;;;;;;5012014;28;20193;-51
2022/06/21 10:42:48;;;;;;;348.92;191.93;;;;;;;;;;5010645;28;20216;-51
2022/06/21 10:45:33;;;;;;;330.95;186.02;;;;;;;;;;5010565;28;20308;-51
2022/06/21 10:48:18;;;;;;;317.42;183.57;;;;;;;;;;4997205;28;20213;-51
2022/06/21 10:50:58;;;;;;;328.02;181.60;;;;;;;;;;5007758;28;20251;-51
2022/06/21 10:53:33;;;;;;;320.35;177.95;;;;;;;;;;5010246;28;20702;-51
2022/06/21 10:59:09;;;;;;;296.88;180.30;;;;;;;;;;4975988;28;20697;-51
2022/06/21 11:01:44;;;;;;;341.52;196.05;;;;;;;;;;4995673;28;20518;-51
2022/06/21 11:04:18;;;;;;;341.88;192.48;;;;;;;;;;5007368;28;20201;-51
2022/06/21 11:06:48;;;;;;;339.25;185.55;;;;;;;;;;5010885;28;20276;-51
2022/06/21 11:09:14;;;;;;;340.55;189.25;;;;;;;;;;5006258;28;20214;-51
2022/06/21 11:11:42;;;;;;;342.08;198.00;;;;;;;;;;4992486;28;20213;-51
2022/06/21 11:14:43;;;;;;;342.35;201.73;;;;;;;;;;5006091;28;20209;-51
2022/06/21 11:17:27;;;;;;;356.02;204.77;;;;;;;;;;4930797;29;20261;-52
2022/06/21 11:19:54;;;;;;;355.15;202.25;;;;;;;;;;4991986;28;20744;-51
2022/06/21 11:22:27;;;;;;;361.17;206.55;;;;;;;;;;5006836;28;20204;-51
2022/06/21 11:25:08;;;;;;;355.52;207.18;;;;;;;;;;5009247;28;20193;-51
2022/06/21 11:27:34;;;;;;;334.80;193.65;;;;;;;;;;5004392;28;20282;-51
2022/06/21 11:30:17;;;;;;;347.77;197.68;;;;;;;;;;5006306;28;20205;-51
2022/06/21 11:32:46;;;;;;;358.35;206.18;;;;;;;;;;5009544;28;20573;-51
2022/06/21 11:35:24;;;;;;;341.50;194.55;;;;;;;;;;5008648;28;20212;-51
2022/06/21 11:38:02;;;;;;;335.95;197.88;;;;;;;;;;4999854;28;20216;-51
2022/06/21 11:40:29;;;;;;;333.17;200.27;;;;;;;;;;4998912;28;20177;-51
2022/06/21 11:42:56;;;;;;;341.52;210.00;;;;;;;;;;5010204;28;20172;-51
2022/06/21 11:45:35;;;;;;;329.13;196.45;;;;;;;;;;5009761;28;20312;-51
2022/06/21 11:48:01;;;;;;;357.38;204.90;;;;;;;;;;4995629;28;20225;-54
2022/06/21 11:50:32;;;;;;;390.20;212.48;;;;;;;;;;4989541;28;20282;-54
2022/06/21 11:53:18;;;;;;;382.60;216.02;;;;;;;;;;4995546;28;20718;-54
2022/06/21 11:55:47;;;;;;;388.25;221.00;;;;;;;;;;4993586;28;20314;-54
2022/06/21 11:58:25;;;;;;;429.98;244.68;;;;;;;;;;4990841;28;20209;-53
2022/06/21 12:00:54;;;;;;;383.30;223.27;;;;;;;;;;4992505;28;20213;-53
2022/06/21 12:03:38;;;;;;;361.48;213.40;;;;;;;;;;4996944;28;20216;-54
2022/06/21 12:06:09;;;;;;;381.80;220.35;;;;;;;;;;4988337;28;20294;-53
2022/06/21 12:08:49;;;;;;;348.33;210.30;;;;;;;;;;5000957;28;20236;-54
2022/06/21 12:11:35;;;;;;;371.65;219.45;;;;;;;;;;4999428;28;20689;-53
2022/06/21 12:14:10;;;;;;;413.53;240.10;;;;;;;;;;4993988;28;20213;-53
2022/06/21 12:16:41;;;;;;;403.75;242.85;;;;;;;;;;4996047;28;20856;-53
2022/06/21 12:19:08;;;;;;;374.60;225.45;;;;;;;;;;5001394;28;20363;-53
2022/06/21 12:21:40;;;;;;;387.10;231.55;;;;;;;;;;4993099;28;20711;-54
2022/06/21 12:24:08;;;;;;;396.80;237.98;;;;;;;;;;4997255;28;20221;-54
2022/06/21 12:26:35;;;;;;;346.80;213.27;;;;;;;;;;4997556;28;20220;-54
2022/06/21 12:29:03;;;;;;;374.27;229.60;;;;;;;;;;5001484;28;20246;-54
2022/06/21 12:31:40;;;;;;;376.83;229.75;;;;;;;;;;4994423;28;20192;-54
2022/06/21 12:34:06;;;;;;;384.63;238.82;;;;;;;;;;4994535;28;20187;-53
2022/06/21 12:36:32;;;;;;;400.52;247.65;;;;;;;;;;4996833;28;20220;-53
2022/06/21 12:39:00;;;;;;;415.35;246.57;;;;;;;;;;5003523;28;20219;-54
2022/06/21 12:41:35;;;;;;;373.73;230.18;;;;;;;;;;4999080;28;20699;-54
2022/06/21 12:44:16;;;;;;;380.35;233.85;;;;;;;;;;4996883;28;20221;-54
2022/06/21 12:46:48;;;;;;;391.38;245.27;;;;;;;;;;4998018;28;20216;-54
2022/06/21 12:49:23;;;;;;;379.33;246.07;;;;;;;;;;4996354;28;20224;-53
2022/06/21 12:52:02;;;;;;;388.88;247.30;;;;;;;;;;5000160;28;20616;-54
2022/06/21 12:54:40;;;;;;;364.90;234.50;;;;;;;;;;4997231;28;20212;-54
2022/06/21 12:57:25;;;;;;;391.33;254.38;;;;;;;;;;5004989;28;20689;-54
2022/06/21 13:00:07;;;;;;;383.50;234.35;;;;;;;;;;4995807;28;20275;-54
2022/06/21 13:02:51;;;;;;;373.13;233.55;;;;;;;;;;5000061;28;20682;-54
2022/06/21 13:05:36;;;;;;;379.15;237.10;;;;;;;;;;4997772;28;20228;-54
2022/06/21 13:08:02;;;;;;;393.23;240.63;;;;;;;;;;5002277;28;20303;-53
2022/06/21 13:10:28;;;;;;;385.33;240.15;;;;;;;;;;4999373;28;20637;-54
2022/06/21 13:12:54;;;;;;;397.35;245.60;;;;;;;;;;5001177;28;20276;-54
2022/06/21 13:15:27;;;;;;;350.80;224.98;;;;;;;;;;4999019;28;20325;-54
2022/06/21 13:17:53;;;;;;;380.42;241.25;;;;;;;;;;5003094;28;20602;-54
2022/06/21 13:20:24;;;;;;;383.85;239.80;;;;;;;;;;5000654;28;20222;-54
2022/06/21 13:22:55;;;;;;;368.38;231.32;;;;;;;;;;5002129;28;20231;-54
2022/06/21 13:25:21;;;;;;;370.67;237.95;;;;;;;;;;5004369;28;20196;-54
2022/06/21 13:28:01;;;;;;;406.75;257.40;;;;;;;;;;5005169;28;20173;-54
2022/06/21 13:31:02;;;;;;;375.33;239.30;;;;;;;;;;4998607;28;20263;-54
2022/06/21 13:33:37;;;;;;;385.40;239.32;;;;;;;;;;4910583;29;20219;-54
2022/06/21 13:36:12;;;;;;;401.55;249.57;;;;;;;;;;4991330;28;20574;-54
2022/06/21 13:39:11;;;;;;;371.35;242.07;;;;;;;;;;5006329;28;20216;-54
2022/06/21 13:44:46;;;;;;;385.27;243.57;;;;;;;;;;5004837;28;20247;-54
2022/06/21 13:47:25;;;;;;;383.58;245.82;;;;;;;;;;5002939;28;20240;-53
2022/06/21 13:49:55;;;;;;;383.17;245.57;;;;;;;;;;5004534;28;20614;-54
2022/06/21 13:52:26;;;;;;;378.70;245.45;;;;;;;;;;5001039;28;20192;-54
2022/06/21 13:55:02;;;;;;;406.48;262.48;;;;;;;;;;5005045;28;20231;-53
2022/06/21 13:57:47;;;;;;;387.25;252.95;;;;;;;;;;5008270;28;20221;-54
2022/06/21 14:00:15;;;;;;;380.85;256.67;;;;;;;;;;5006684;28;20308;-54
2022/06/21 14:02:59;;;;;;;366.17;246.23;;;;;;;;;;5009937;28;20243;-54
2022/06/21 14:05:34;;;;;;;375.90;268.27;;;;;;;;;;5009003;28;20247;-54
2022/06/21 14:08:03;;;;;;;364.27;254.35;;;;;;;;;;5004091;28;20231;-54
2022/06/21 14:10:42;;;;;;;383.45;259.83;;;;;;;;;;5005504;28;20281;-54
2022/06/21 14:13:26;;;;;;;358.65;250.00;;;;;;;;;;5011023;28;20173;-54
2022/06/21 14:16:21;;;;;;;396.25;266.77;;;;;;;;;;5008425;28;20221;-54
2022/06/21 14:18:53;;;;;;;371.63;273.58;;;;;;;;;;4988009;28;20228;-54
2022/06/21 14:21:20;;;;;;;399.30;289.13;;;;;;;;;;5004218;28;20225;-54
2022/06/21 14:24:02;;;;;;;371.63;278.13;;;;;;;;;;5008210;28;20693;-54
2022/06/21 14:26:36;;;;;;;377.30;288.43;;;;;;;;;;5003204;28;20219;-54
2022/06/21 14:29:02;;;;;;;360.77;282.77;;;;;;;;;;5001436;28;20288;-54
2022/06/21 14:31:31;;;;;;;368.88;299.27;;;;;;;;;;5001622;28;20637;-54
2022/06/21 14:33:57;;;;;;;362.05;297.80;;;;;;;;;;4991026;28;20193;-54
2022/06/21 14:36:27;;;;;;;380.13;303.80;;;;;;;;;;5008088;28;20220;-54
2022/06/21 14:39:00;;;;;;;374.35;313.33;;;;;;;;;;5009597;28;20221;-54
2022/06/21 14:41:35;;;;;;;368.77;313.85;;;;;;;;;;5006085;28;20147;-54
2022/06/21 14:44:13;;;;;;;370.45;323.27;;;;;;;;;;5007473;28;20221;-54